sensor_id;sensor_type;location;lat;lon;timestamp;P1;durP1;ratioP1;P2;durP2;ratioP2
38312;SDS011;24114;52.260;6.714;2024-01-25T00:00:11;21.63;;;4.05;;
38312;SDS011;24114;52.260;6.714;2024-01-25T00:02:40;18.90;;;4.10;;
38312;SDS011;24114;52.260;6.714;2024-01-25T00:05:08;18.08;;;3.70;;
38312;SDS011;24114;52.260;6.714;2024-01-25T00:07:44;18.85;;;3.88;;
38312;SDS011;24114;52.260;6.714;2024-01-25T00:10:12;17.98;;;3.42;;
38312;SDS011;24114;52.260;6.714;2024-01-25T00:12:42;20.70;;;3.97;;
38312;SDS011;24114;52.260;6.714;2024-01-25T00:15:10;19.50;;;3.72;;
38312;SDS011;24114;52.260;6.714;2024-01-25T00:17:41;24.57;;;3.40;;
38312;SDS011;24114;52.260;6.714;2024-01-25T00:20:09;22.33;;;3.80;;
38312;SDS011;24114;52.260;6.714;2024-01-25T00:22:38;17.30;;;3.25;;
38312;SDS011;24114;52.260;6.714;2024-01-25T00:25:06;16.58;;;3.65;;
38312;SDS011;24114;52.260;6.714;2024-01-25T00:27:34;17.70;;;3.70;;
38312;SDS011;24114;52.260;6.714;2024-01-25T00:30:04;18.63;;;3.70;;
38312;SDS011;24114;52.260;6.714;2024-01-25T00:32:33;16.40;;;3.33;;
38312;SDS011;24114;52.260;6.714;2024-01-25T00:35:01;18.60;;;3.88;;
38312;SDS011;24114;52.260;6.714;2024-01-25T00:37:30;15.50;;;3.22;;
38312;SDS011;24114;52.260;6.714;2024-01-25T00:39:59;15.68;;;2.88;;
38312;SDS011;24114;52.260;6.714;2024-01-25T00:42:27;16.00;;;3.55;;
38312;SDS011;24114;52.260;6.714;2024-01-25T00:44:56;21.38;;;4.20;;
38312;SDS011;24114;52.260;6.714;2024-01-25T00:47:26;20.23;;;3.27;;
38312;SDS011;24114;52.260;6.714;2024-01-25T00:49:55;14.40;;;3.17;;
38312;SDS011;24114;52.260;6.714;2024-01-25T00:52:23;18.88;;;3.65;;
38312;SDS011;24114;52.260;6.714;2024-01-25T00:54:52;18.63;;;4.28;;
38312;SDS011;24114;52.260;6.714;2024-01-25T00:57:20;19.00;;;4.20;;
38312;SDS011;24114;52.260;6.714;2024-01-25T00:59:48;21.65;;;4.15;;
38312;SDS011;24114;52.260;6.714;2024-01-25T01:02:17;17.17;;;3.53;;
38312;SDS011;24114;52.260;6.714;2024-01-25T01:04:46;17.63;;;3.10;;
38312;SDS011;24114;52.260;6.714;2024-01-25T01:07:15;16.42;;;3.15;;
38312;SDS011;24114;52.260;6.714;2024-01-25T01:09:43;18.50;;;3.80;;
38312;SDS011;24114;52.260;6.714;2024-01-25T01:12:11;18.73;;;3.90;;
38312;SDS011;24114;52.260;6.714;2024-01-25T01:14:40;16.92;;;3.05;;
38312;SDS011;24114;52.260;6.714;2024-01-25T01:17:07;20.92;;;3.70;;
38312;SDS011;24114;52.260;6.714;2024-01-25T01:19:35;18.48;;;3.28;;
38312;SDS011;24114;52.260;6.714;2024-01-25T01:22:04;18.13;;;3.33;;
38312;SDS011;24114;52.260;6.714;2024-01-25T01:24:32;16.52;;;3.30;;
38312;SDS011;24114;52.260;6.714;2024-01-25T01:27:00;17.70;;;3.05;;
38312;SDS011;24114;52.260;6.714;2024-01-25T01:29:28;16.27;;;3.47;;
38312;SDS011;24114;52.260;6.714;2024-01-25T01:31:56;16.52;;;2.92;;
38312;SDS011;24114;52.260;6.714;2024-01-25T01:34:24;16.98;;;3.20;;
38312;SDS011;24114;52.260;6.714;2024-01-25T01:36:52;18.42;;;3.10;;
38312;SDS011;24114;52.260;6.714;2024-01-25T01:39:21;19.27;;;3.42;;
38312;SDS011;24114;52.260;6.714;2024-01-25T01:41:49;17.13;;;3.42;;
38312;SDS011;24114;52.260;6.714;2024-01-25T01:44:17;20.77;;;3.63;;
38312;SDS011;24114;52.260;6.714;2024-01-25T01:46:45;21.70;;;4.25;;
38312;SDS011;24114;52.260;6.714;2024-01-25T01:49:13;20.38;;;3.80;;
38312;SDS011;24114;52.260;6.714;2024-01-25T01:51:42;15.20;;;3.70;;
38312;SDS011;24114;52.260;6.714;2024-01-25T01:54:10;17.02;;;3.60;;
38312;SDS011;24114;52.260;6.714;2024-01-25T01:56:40;18.63;;;3.60;;
38312;SDS011;24114;52.260;6.714;2024-01-25T01:59:08;19.40;;;3.95;;
38312;SDS011;24114;52.260;6.714;2024-01-25T02:01:36;21.65;;;4.63;;
38312;SDS011;24114;52.260;6.714;2024-01-25T02:04:05;20.02;;;3.60;;
38312;SDS011;24114;52.260;6.714;2024-01-25T02:06:33;20.70;;;4.25;;
38312;SDS011;24114;52.260;6.714;2024-01-25T02:09:01;20.33;;;4.25;;
38312;SDS011;24114;52.260;6.714;2024-01-25T02:11:29;18.63;;;3.63;;
38312;SDS011;24114;52.260;6.714;2024-01-25T02:13:59;18.90;;;3.37;;
38312;SDS011;24114;52.260;6.714;2024-01-25T02:16:26;23.73;;;4.03;;
38312;SDS011;24114;52.260;6.714;2024-01-25T02:18:54;16.73;;;3.45;;
38312;SDS011;24114;52.260;6.714;2024-01-25T02:21:24;18.75;;;3.55;;
38312;SDS011;24114;52.260;6.714;2024-01-25T02:23:53;21.55;;;3.78;;
38312;SDS011;24114;52.260;6.714;2024-01-25T02:26:22;17.58;;;3.95;;
38312;SDS011;24114;52.260;6.714;2024-01-25T02:28:49;22.70;;;3.30;;
38312;SDS011;24114;52.260;6.714;2024-01-25T02:31:20;21.85;;;3.95;;
38312;SDS011;24114;52.260;6.714;2024-01-25T02:33:48;18.05;;;3.78;;
38312;SDS011;24114;52.260;6.714;2024-01-25T02:36:17;20.50;;;4.10;;
38312;SDS011;24114;52.260;6.714;2024-01-25T02:38:45;17.95;;;4.03;;
38312;SDS011;24114;52.260;6.714;2024-01-25T02:41:15;18.90;;;3.60;;
38312;SDS011;24114;52.260;6.714;2024-01-25T02:43:42;21.73;;;4.37;;
38312;SDS011;24114;52.260;6.714;2024-01-25T02:46:10;20.90;;;3.50;;
38312;SDS011;24114;52.260;6.714;2024-01-25T02:48:38;17.73;;;3.83;;
38312;SDS011;24114;52.260;6.714;2024-01-25T02:51:06;19.27;;;3.47;;
38312;SDS011;24114;52.260;6.714;2024-01-25T02:53:34;20.05;;;3.72;;
38312;SDS011;24114;52.260;6.714;2024-01-25T02:56:01;21.23;;;4.10;;
38312;SDS011;24114;52.260;6.714;2024-01-25T02:58:31;20.00;;;3.77;;
38312;SDS011;24114;52.260;6.714;2024-01-25T03:00:59;18.97;;;3.60;;
38312;SDS011;24114;52.260;6.714;2024-01-25T03:03:26;18.35;;;3.20;;
38312;SDS011;24114;52.260;6.714;2024-01-25T03:05:54;18.80;;;4.25;;
38312;SDS011;24114;52.260;6.714;2024-01-25T03:08:22;22.45;;;3.97;;
38312;SDS011;24114;52.260;6.714;2024-01-25T03:10:50;19.80;;;3.63;;
38312;SDS011;24114;52.260;6.714;2024-01-25T03:13:18;19.08;;;3.85;;
38312;SDS011;24114;52.260;6.714;2024-01-25T03:15:46;24.67;;;3.80;;
38312;SDS011;24114;52.260;6.714;2024-01-25T03:18:14;21.90;;;4.13;;
38312;SDS011;24114;52.260;6.714;2024-01-25T03:20:42;21.17;;;4.53;;
38312;SDS011;24114;52.260;6.714;2024-01-25T03:23:10;20.17;;;3.65;;
38312;SDS011;24114;52.260;6.714;2024-01-25T03:25:38;17.77;;;3.20;;
38312;SDS011;24114;52.260;6.714;2024-01-25T03:28:05;23.70;;;3.60;;
38312;SDS011;24114;52.260;6.714;2024-01-25T03:30:35;17.92;;;3.75;;
38312;SDS011;24114;52.260;6.714;2024-01-25T03:33:04;22.13;;;3.90;;
38312;SDS011;24114;52.260;6.714;2024-01-25T03:35:32;19.23;;;3.83;;
38312;SDS011;24114;52.260;6.714;2024-01-25T03:38:00;21.20;;;3.80;;
38312;SDS011;24114;52.260;6.714;2024-01-25T03:40:28;21.55;;;4.07;;
38312;SDS011;24114;52.260;6.714;2024-01-25T03:42:56;19.38;;;3.92;;
38312;SDS011;24114;52.260;6.714;2024-01-25T03:45:43;21.85;;;3.95;;
38312;SDS011;24114;52.260;6.714;2024-01-25T03:48:13;22.77;;;4.22;;
38312;SDS011;24114;52.260;6.714;2024-01-25T03:50:41;23.42;;;4.28;;
38312;SDS011;24114;52.260;6.714;2024-01-25T03:53:08;18.88;;;3.50;;
38312;SDS011;24114;52.260;6.714;2024-01-25T03:55:36;19.17;;;4.03;;
38312;SDS011;24114;52.260;6.714;2024-01-25T03:58:04;22.02;;;3.90;;
38312;SDS011;24114;52.260;6.714;2024-01-25T04:00:32;18.42;;;4.05;;
38312;SDS011;24114;52.260;6.714;2024-01-25T04:03:00;22.60;;;4.30;;
38312;SDS011;24114;52.260;6.714;2024-01-25T04:05:29;20.45;;;3.95;;
38312;SDS011;24114;52.260;6.714;2024-01-25T04:07:57;20.45;;;3.58;;
38312;SDS011;24114;52.260;6.714;2024-01-25T04:10:25;22.52;;;4.22;;
38312;SDS011;24114;52.260;6.714;2024-01-25T04:12:53;16.40;;;3.38;;
38312;SDS011;24114;52.260;6.714;2024-01-25T04:15:21;19.00;;;3.47;;
38312;SDS011;24114;52.260;6.714;2024-01-25T04:17:49;16.58;;;3.67;;
38312;SDS011;24114;52.260;6.714;2024-01-25T04:20:17;18.50;;;4.00;;
38312;SDS011;24114;52.260;6.714;2024-01-25T04:22:46;18.80;;;3.83;;
38312;SDS011;24114;52.260;6.714;2024-01-25T04:25:15;15.77;;;3.38;;
38312;SDS011;24114;52.260;6.714;2024-01-25T04:27:43;19.85;;;4.30;;
38312;SDS011;24114;52.260;6.714;2024-01-25T04:30:11;25.52;;;4.03;;
38312;SDS011;24114;52.260;6.714;2024-01-25T04:32:40;23.17;;;3.50;;
38312;SDS011;24114;52.260;6.714;2024-01-25T04:35:08;22.67;;;4.85;;
38312;SDS011;24114;52.260;6.714;2024-01-25T04:37:36;17.50;;;3.47;;
38312;SDS011;24114;52.260;6.714;2024-01-25T04:40:05;20.13;;;3.67;;
38312;SDS011;24114;52.260;6.714;2024-01-25T04:42:34;20.02;;;4.25;;
38312;SDS011;24114;52.260;6.714;2024-01-25T04:45:02;22.77;;;3.88;;
38312;SDS011;24114;52.260;6.714;2024-01-25T04:47:30;21.60;;;4.38;;
38312;SDS011;24114;52.260;6.714;2024-01-25T04:49:58;22.55;;;4.28;;
38312;SDS011;24114;52.260;6.714;2024-01-25T04:52:26;17.83;;;3.63;;
38312;SDS011;24114;52.260;6.714;2024-01-25T04:54:54;23.63;;;4.80;;
38312;SDS011;24114;52.260;6.714;2024-01-25T04:57:23;17.35;;;3.75;;
38312;SDS011;24114;52.260;6.714;2024-01-25T04:59:51;22.42;;;4.28;;
38312;SDS011;24114;52.260;6.714;2024-01-25T05:02:19;22.33;;;4.10;;
38312;SDS011;24114;52.260;6.714;2024-01-25T05:04:47;20.95;;;3.83;;
38312;SDS011;24114;52.260;6.714;2024-01-25T05:07:16;18.25;;;3.78;;
38312;SDS011;24114;52.260;6.714;2024-01-25T05:09:44;20.35;;;4.15;;
38312;SDS011;24114;52.260;6.714;2024-01-25T05:12:11;22.83;;;4.57;;
38312;SDS011;24114;52.260;6.714;2024-01-25T05:14:41;20.10;;;4.20;;
38312;SDS011;24114;52.260;6.714;2024-01-25T05:17:08;25.38;;;4.15;;
38312;SDS011;24114;52.260;6.714;2024-01-25T05:19:36;23.55;;;4.68;;
38312;SDS011;24114;52.260;6.714;2024-01-25T05:22:04;20.08;;;3.80;;
38312;SDS011;24114;52.260;6.714;2024-01-25T05:24:33;22.88;;;4.35;;
38312;SDS011;24114;52.260;6.714;2024-01-25T05:27:01;22.73;;;4.47;;
38312;SDS011;24114;52.260;6.714;2024-01-25T05:29:29;25.58;;;4.47;;
38312;SDS011;24114;52.260;6.714;2024-01-25T05:31:58;21.88;;;4.00;;
38312;SDS011;24114;52.260;6.714;2024-01-25T05:34:26;19.48;;;4.13;;
38312;SDS011;24114;52.260;6.714;2024-01-25T05:36:54;20.48;;;3.85;;
38312;SDS011;24114;52.260;6.714;2024-01-25T05:39:22;18.65;;;3.83;;
38312;SDS011;24114;52.260;6.714;2024-01-25T05:41:50;24.38;;;4.13;;
38312;SDS011;24114;52.260;6.714;2024-01-25T05:44:17;20.00;;;4.10;;
38312;SDS011;24114;52.260;6.714;2024-01-25T05:46:45;21.58;;;4.07;;
38312;SDS011;24114;52.260;6.714;2024-01-25T05:49:14;26.17;;;4.32;;
38312;SDS011;24114;52.260;6.714;2024-01-25T05:51:43;18.77;;;3.58;;
38312;SDS011;24114;52.260;6.714;2024-01-25T05:54:10;17.05;;;3.25;;
38312;SDS011;24114;52.260;6.714;2024-01-25T05:56:38;16.97;;;4.13;;
38312;SDS011;24114;52.260;6.714;2024-01-25T05:59:06;25.20;;;4.57;;
38312;SDS011;24114;52.260;6.714;2024-01-25T06:01:34;20.95;;;4.05;;
38312;SDS011;24114;52.260;6.714;2024-01-25T06:04:02;20.02;;;3.95;;
38312;SDS011;24114;52.260;6.714;2024-01-25T06:06:31;19.95;;;4.55;;
38312;SDS011;24114;52.260;6.714;2024-01-25T06:08:59;19.73;;;3.63;;
38312;SDS011;24114;52.260;6.714;2024-01-25T06:11:38;18.02;;;4.13;;
38312;SDS011;24114;52.260;6.714;2024-01-25T06:14:06;23.33;;;4.28;;
38312;SDS011;24114;52.260;6.714;2024-01-25T06:16:34;21.10;;;4.03;;
38312;SDS011;24114;52.260;6.714;2024-01-25T06:19:02;19.65;;;3.65;;
38312;SDS011;24114;52.260;6.714;2024-01-25T06:21:32;25.70;;;4.47;;
38312;SDS011;24114;52.260;6.714;2024-01-25T06:24:02;21.02;;;3.70;;
38312;SDS011;24114;52.260;6.714;2024-01-25T06:26:30;17.45;;;3.60;;
38312;SDS011;24114;52.260;6.714;2024-01-25T06:28:57;18.45;;;3.42;;
38312;SDS011;24114;52.260;6.714;2024-01-25T06:31:25;20.02;;;3.58;;
38312;SDS011;24114;52.260;6.714;2024-01-25T06:33:53;20.33;;;4.78;;
38312;SDS011;24114;52.260;6.714;2024-01-25T06:36:21;17.75;;;3.90;;
38312;SDS011;24114;52.260;6.714;2024-01-25T06:38:50;18.98;;;3.97;;
38312;SDS011;24114;52.260;6.714;2024-01-25T06:41:18;23.52;;;4.55;;
38312;SDS011;24114;52.260;6.714;2024-01-25T06:43:46;22.33;;;3.70;;
38312;SDS011;24114;52.260;6.714;2024-01-25T06:46:14;24.15;;;4.28;;
38312;SDS011;24114;52.260;6.714;2024-01-25T06:48:42;22.90;;;4.85;;
38312;SDS011;24114;52.260;6.714;2024-01-25T06:51:10;25.30;;;4.67;;
38312;SDS011;24114;52.260;6.714;2024-01-25T06:53:38;22.00;;;3.80;;
38312;SDS011;24114;52.260;6.714;2024-01-25T06:56:07;24.58;;;4.43;;
38312;SDS011;24114;52.260;6.714;2024-01-25T06:58:35;19.50;;;3.17;;
38312;SDS011;24114;52.260;6.714;2024-01-25T07:01:04;19.27;;;4.05;;
38312;SDS011;24114;52.260;6.714;2024-01-25T07:03:32;22.42;;;4.03;;
38312;SDS011;24114;52.260;6.714;2024-01-25T07:06:00;18.60;;;4.25;;
38312;SDS011;24114;52.260;6.714;2024-01-25T07:08:30;17.00;;;4.03;;
38312;SDS011;24114;52.260;6.714;2024-01-25T07:10:57;24.70;;;4.50;;
38312;SDS011;24114;52.260;6.714;2024-01-25T07:13:29;20.60;;;4.97;;
38312;SDS011;24114;52.260;6.714;2024-01-25T07:15:56;21.85;;;5.28;;
38312;SDS011;24114;52.260;6.714;2024-01-25T07:18:24;21.52;;;4.68;;
38312;SDS011;24114;52.260;6.714;2024-01-25T07:20:52;26.33;;;4.20;;
38312;SDS011;24114;52.260;6.714;2024-01-25T07:23:20;24.48;;;4.43;;
38312;SDS011;24114;52.260;6.714;2024-01-25T07:25:49;21.30;;;3.72;;
38312;SDS011;24114;52.260;6.714;2024-01-25T07:28:18;25.58;;;4.13;;
38312;SDS011;24114;52.260;6.714;2024-01-25T07:30:47;21.77;;;4.57;;
38312;SDS011;24114;52.260;6.714;2024-01-25T07:33:17;19.85;;;4.63;;
38312;SDS011;24114;52.260;6.714;2024-01-25T07:35:45;26.02;;;4.68;;
38312;SDS011;24114;52.260;6.714;2024-01-25T07:38:14;22.25;;;3.97;;
38312;SDS011;24114;52.260;6.714;2024-01-25T07:40:42;19.20;;;3.47;;
38312;SDS011;24114;52.260;6.714;2024-01-25T07:43:10;21.58;;;4.13;;
38312;SDS011;24114;52.260;6.714;2024-01-25T07:45:38;25.63;;;4.85;;
38312;SDS011;24114;52.260;6.714;2024-01-25T07:48:08;27.40;;;4.85;;
38312;SDS011;24114;52.260;6.714;2024-01-25T07:50:41;21.35;;;4.13;;
38312;SDS011;24114;52.260;6.714;2024-01-25T07:53:09;17.98;;;4.18;;
38312;SDS011;24114;52.260;6.714;2024-01-25T07:55:38;24.92;;;3.63;;
38312;SDS011;24114;52.260;6.714;2024-01-25T07:58:06;21.55;;;4.20;;
38312;SDS011;24114;52.260;6.714;2024-01-25T08:00:34;16.38;;;4.10;;
38312;SDS011;24114;52.260;6.714;2024-01-25T08:05:31;22.70;;;4.40;;
38312;SDS011;24114;52.260;6.714;2024-01-25T08:08:12;19.77;;;4.28;;
38312;SDS011;24114;52.260;6.714;2024-01-25T08:10:40;25.38;;;4.45;;
38312;SDS011;24114;52.260;6.714;2024-01-25T08:13:10;32.00;;;5.35;;
38312;SDS011;24114;52.260;6.714;2024-01-25T08:15:37;25.65;;;4.25;;
38312;SDS011;24114;52.260;6.714;2024-01-25T08:18:06;29.65;;;4.80;;
38312;SDS011;24114;52.260;6.714;2024-01-25T08:20:36;23.60;;;4.60;;
38312;SDS011;24114;52.260;6.714;2024-01-25T08:23:05;23.88;;;4.32;;
38312;SDS011;24114;52.260;6.714;2024-01-25T08:25:34;22.27;;;5.13;;
38312;SDS011;24114;52.260;6.714;2024-01-25T08:28:02;19.13;;;3.75;;
38312;SDS011;24114;52.260;6.714;2024-01-25T08:30:31;25.15;;;4.72;;
38312;SDS011;24114;52.260;6.714;2024-01-25T08:32:59;29.05;;;5.22;;
38312;SDS011;24114;52.260;6.714;2024-01-25T08:35:27;24.88;;;4.20;;
38312;SDS011;24114;52.260;6.714;2024-01-25T08:37:58;28.02;;;4.35;;
38312;SDS011;24114;52.260;6.714;2024-01-25T08:40:26;22.60;;;4.25;;
38312;SDS011;24114;52.260;6.714;2024-01-25T08:42:56;30.38;;;5.30;;
38312;SDS011;24114;52.260;6.714;2024-01-25T08:45:24;24.90;;;5.78;;
38312;SDS011;24114;52.260;6.714;2024-01-25T08:47:51;18.13;;;3.78;;
38312;SDS011;24114;52.260;6.714;2024-01-25T08:50:22;25.05;;;5.53;;
38312;SDS011;24114;52.260;6.714;2024-01-25T08:52:53;23.60;;;5.18;;
38312;SDS011;24114;52.260;6.714;2024-01-25T08:55:22;19.85;;;5.35;;
38312;SDS011;24114;52.260;6.714;2024-01-25T08:57:50;22.05;;;5.07;;
38312;SDS011;24114;52.260;6.714;2024-01-25T09:00:18;18.00;;;4.40;;
38312;SDS011;24114;52.260;6.714;2024-01-25T09:02:46;20.95;;;4.47;;
38312;SDS011;24114;52.260;6.714;2024-01-25T09:05:14;20.17;;;4.60;;
38312;SDS011;24114;52.260;6.714;2024-01-25T09:07:42;25.27;;;5.80;;
38312;SDS011;24114;52.260;6.714;2024-01-25T09:10:10;19.80;;;4.03;;
38312;SDS011;24114;52.260;6.714;2024-01-25T09:12:40;26.02;;;5.90;;
38312;SDS011;24114;52.260;6.714;2024-01-25T09:15:08;22.30;;;5.75;;
38312;SDS011;24114;52.260;6.714;2024-01-25T09:17:36;19.77;;;5.30;;
38312;SDS011;24114;52.260;6.714;2024-01-25T09:20:05;20.48;;;5.22;;
38312;SDS011;24114;52.260;6.714;2024-01-25T09:22:35;20.02;;;4.85;;
38312;SDS011;24114;52.260;6.714;2024-01-25T09:25:04;22.63;;;5.63;;
38312;SDS011;24114;52.260;6.714;2024-01-25T09:27:35;24.35;;;4.85;;
38312;SDS011;24114;52.260;6.714;2024-01-25T09:30:06;21.38;;;4.88;;
38312;SDS011;24114;52.260;6.714;2024-01-25T09:32:35;23.65;;;5.43;;
38312;SDS011;24114;52.260;6.714;2024-01-25T09:35:03;25.23;;;5.68;;
38312;SDS011;24114;52.260;6.714;2024-01-25T09:37:31;17.00;;;4.55;;
38312;SDS011;24114;52.260;6.714;2024-01-25T09:39:59;28.40;;;5.57;;
38312;SDS011;24114;52.260;6.714;2024-01-25T09:42:29;21.92;;;5.32;;
38312;SDS011;24114;52.260;6.714;2024-01-25T09:44:57;22.02;;;5.13;;
38312;SDS011;24114;52.260;6.714;2024-01-25T09:47:27;22.23;;;4.38;;
38312;SDS011;24114;52.260;6.714;2024-01-25T09:49:55;24.42;;;5.10;;
38312;SDS011;24114;52.260;6.714;2024-01-25T09:52:23;21.55;;;5.22;;
38312;SDS011;24114;52.260;6.714;2024-01-25T09:54:53;21.67;;;5.25;;
38312;SDS011;24114;52.260;6.714;2024-01-25T09:57:24;20.60;;;5.80;;
38312;SDS011;24114;52.260;6.714;2024-01-25T09:59:53;20.98;;;4.75;;
38312;SDS011;24114;52.260;6.714;2024-01-25T10:02:22;23.20;;;5.53;;
38312;SDS011;24114;52.260;6.714;2024-01-25T10:04:52;17.75;;;4.53;;
38312;SDS011;24114;52.260;6.714;2024-01-25T10:07:36;20.23;;;4.95;;
38312;SDS011;24114;52.260;6.714;2024-01-25T10:10:05;22.50;;;6.05;;
38312;SDS011;24114;52.260;6.714;2024-01-25T10:12:33;26.63;;;6.22;;
38312;SDS011;24114;52.260;6.714;2024-01-25T10:15:02;26.02;;;5.40;;
38312;SDS011;24114;52.260;6.714;2024-01-25T10:17:30;23.42;;;5.55;;
38312;SDS011;24114;52.260;6.714;2024-01-25T10:20:19;19.88;;;4.68;;
38312;SDS011;24114;52.260;6.714;2024-01-25T10:22:51;24.40;;;5.22;;
38312;SDS011;24114;52.260;6.714;2024-01-25T10:25:24;23.33;;;5.78;;
38312;SDS011;24114;52.260;6.714;2024-01-25T10:27:52;23.42;;;5.15;;
38312;SDS011;24114;52.260;6.714;2024-01-25T10:30:20;21.90;;;5.53;;
38312;SDS011;24114;52.260;6.714;2024-01-25T10:32:49;24.90;;;6.18;;
38312;SDS011;24114;52.260;6.714;2024-01-25T10:35:20;23.80;;;6.70;;
38312;SDS011;24114;52.260;6.714;2024-01-25T10:37:50;25.48;;;5.85;;
38312;SDS011;24114;52.260;6.714;2024-01-25T10:40:19;28.90;;;6.03;;
38312;SDS011;24114;52.260;6.714;2024-01-25T10:42:47;25.02;;;5.68;;
38312;SDS011;24114;52.260;6.714;2024-01-25T10:45:16;25.42;;;6.15;;
38312;SDS011;24114;52.260;6.714;2024-01-25T10:47:45;25.17;;;6.10;;
38312;SDS011;24114;52.260;6.714;2024-01-25T10:50:16;22.60;;;5.53;;
38312;SDS011;24114;52.260;6.714;2024-01-25T10:52:46;25.83;;;7.00;;
38312;SDS011;24114;52.260;6.714;2024-01-25T10:55:14;23.27;;;5.90;;
38312;SDS011;24114;52.260;6.714;2024-01-25T10:57:44;21.75;;;7.10;;
38312;SDS011;24114;52.260;6.714;2024-01-25T11:00:14;24.35;;;7.40;;
38312;SDS011;24114;52.260;6.714;2024-01-25T11:02:43;22.00;;;6.95;;
38312;SDS011;24114;52.260;6.714;2024-01-25T11:05:12;27.13;;;7.40;;
38312;SDS011;24114;52.260;6.714;2024-01-25T11:07:42;27.42;;;6.53;;
38312;SDS011;24114;52.260;6.714;2024-01-25T11:10:18;27.52;;;6.25;;
38312;SDS011;24114;52.260;6.714;2024-01-25T11:12:50;27.48;;;7.75;;
38312;SDS011;24114;52.260;6.714;2024-01-25T11:15:20;28.60;;;6.80;;
38312;SDS011;24114;52.260;6.714;2024-01-25T11:17:52;20.95;;;6.30;;
38312;SDS011;24114;52.260;6.714;2024-01-25T11:20:21;25.13;;;6.72;;
38312;SDS011;24114;52.260;6.714;2024-01-25T11:22:54;24.00;;;6.80;;
38312;SDS011;24114;52.260;6.714;2024-01-25T11:25:27;16.63;;;5.72;;
38312;SDS011;24114;52.260;6.714;2024-01-25T11:27:56;28.90;;;6.93;;
38312;SDS011;24114;52.260;6.714;2024-01-25T11:30:24;25.75;;;6.40;;
38312;SDS011;24114;52.260;6.714;2024-01-25T11:32:53;22.98;;;7.05;;
38312;SDS011;24114;52.260;6.714;2024-01-25T11:35:21;30.90;;;6.80;;
38312;SDS011;24114;52.260;6.714;2024-01-25T11:37:52;28.90;;;6.45;;
38312;SDS011;24114;52.260;6.714;2024-01-25T11:40:20;19.60;;;5.78;;
38312;SDS011;24114;52.260;6.714;2024-01-25T11:42:49;24.52;;;6.15;;
38312;SDS011;24114;52.260;6.714;2024-01-25T11:45:18;29.33;;;6.88;;
38312;SDS011;24114;52.260;6.714;2024-01-25T11:47:45;23.60;;;6.40;;
38312;SDS011;24114;52.260;6.714;2024-01-25T11:50:13;25.75;;;6.07;;
38312;SDS011;24114;52.260;6.714;2024-01-25T11:52:41;21.55;;;6.05;;
38312;SDS011;24114;52.260;6.714;2024-01-25T11:55:10;27.40;;;5.85;;
38312;SDS011;24114;52.260;6.714;2024-01-25T11:57:39;18.58;;;5.57;;
38312;SDS011;24114;52.260;6.714;2024-01-25T12:00:10;22.73;;;7.22;;
38312;SDS011;24114;52.260;6.714;2024-01-25T12:02:41;26.27;;;7.03;;
38312;SDS011;24114;52.260;6.714;2024-01-25T12:05:10;29.27;;;6.95;;
38312;SDS011;24114;52.260;6.714;2024-01-25T12:07:40;30.15;;;6.07;;
38312;SDS011;24114;52.260;6.714;2024-01-25T12:10:09;30.48;;;6.78;;
38312;SDS011;24114;52.260;6.714;2024-01-25T12:12:42;25.40;;;6.28;;
38312;SDS011;24114;52.260;6.714;2024-01-25T12:15:12;23.23;;;6.90;;
38312;SDS011;24114;52.260;6.714;2024-01-25T12:17:39;25.55;;;7.43;;
38312;SDS011;24114;52.260;6.714;2024-01-25T12:20:08;31.55;;;6.53;;
38312;SDS011;24114;52.260;6.714;2024-01-25T12:22:39;20.88;;;5.32;;
38312;SDS011;24114;52.260;6.714;2024-01-25T12:25:08;34.30;;;7.00;;
38312;SDS011;24114;52.260;6.714;2024-01-25T12:27:37;29.08;;;7.53;;
38312;SDS011;24114;52.260;6.714;2024-01-25T12:30:07;31.33;;;7.28;;
38312;SDS011;24114;52.260;6.714;2024-01-25T12:32:37;18.92;;;5.63;;
38312;SDS011;24114;52.260;6.714;2024-01-25T12:35:05;28.77;;;7.10;;
38312;SDS011;24114;52.260;6.714;2024-01-25T12:37:34;22.08;;;5.90;;
38312;SDS011;24114;52.260;6.714;2024-01-25T12:40:03;20.35;;;5.50;;
38312;SDS011;24114;52.260;6.714;2024-01-25T12:42:31;25.27;;;5.53;;
38312;SDS011;24114;52.260;6.714;2024-01-25T12:45:00;26.27;;;5.43;;
38312;SDS011;24114;52.260;6.714;2024-01-25T12:47:28;21.60;;;5.75;;
38312;SDS011;24114;52.260;6.714;2024-01-25T12:49:58;18.25;;;5.57;;
38312;SDS011;24114;52.260;6.714;2024-01-25T13:17:17;21.98;;;6.78;;
38312;SDS011;24114;52.260;6.714;2024-01-25T13:20:34;25.17;;;7.15;;
38312;SDS011;24114;52.260;6.714;2024-01-25T13:23:02;26.05;;;7.93;;
38312;SDS011;24114;52.260;6.714;2024-01-25T13:25:31;29.50;;;7.28;;
38312;SDS011;24114;52.260;6.714;2024-01-25T13:27:58;29.58;;;11.18;;
38312;SDS011;24114;52.260;6.714;2024-01-25T13:30:26;25.65;;;9.15;;
38312;SDS011;24114;52.260;6.714;2024-01-25T13:32:54;27.27;;;6.65;;
38312;SDS011;24114;52.260;6.714;2024-01-25T13:35:22;26.13;;;7.40;;
38312;SDS011;24114;52.260;6.714;2024-01-25T13:37:51;22.60;;;6.82;;
38312;SDS011;24114;52.260;6.714;2024-01-25T13:40:19;22.60;;;7.10;;
38312;SDS011;24114;52.260;6.714;2024-01-25T13:42:47;24.63;;;6.35;;
38312;SDS011;24114;52.260;6.714;2024-01-25T13:45:15;27.42;;;7.82;;
38312;SDS011;24114;52.260;6.714;2024-01-25T13:47:43;29.52;;;9.13;;
38312;SDS011;24114;52.260;6.714;2024-01-25T13:50:11;22.70;;;7.15;;
38312;SDS011;24114;52.260;6.714;2024-01-25T13:52:39;25.63;;;8.48;;
38312;SDS011;24114;52.260;6.714;2024-01-25T13:55:08;29.05;;;8.35;;
38312;SDS011;24114;52.260;6.714;2024-01-25T13:57:36;25.60;;;7.60;;
38312;SDS011;24114;52.260;6.714;2024-01-25T14:00:04;25.35;;;7.35;;
38312;SDS011;24114;52.260;6.714;2024-01-25T14:02:34;20.58;;;6.47;;
38312;SDS011;24114;52.260;6.714;2024-01-25T14:05:02;27.23;;;7.97;;
38312;SDS011;24114;52.260;6.714;2024-01-25T14:07:30;26.45;;;8.05;;
38312;SDS011;24114;52.260;6.714;2024-01-25T14:09:58;25.83;;;6.88;;
38312;SDS011;24114;52.260;6.714;2024-01-25T14:12:28;22.42;;;7.68;;
38312;SDS011;24114;52.260;6.714;2024-01-25T14:14:56;25.02;;;6.72;;
38312;SDS011;24114;52.260;6.714;2024-01-25T14:17:23;26.90;;;6.47;;
38312;SDS011;24114;52.260;6.714;2024-01-25T14:19:52;23.08;;;7.43;;
38312;SDS011;24114;52.260;6.714;2024-01-25T14:22:21;27.38;;;8.32;;
38312;SDS011;24114;52.260;6.714;2024-01-25T14:24:57;23.17;;;7.68;;
38312;SDS011;24114;52.260;6.714;2024-01-25T14:27:26;26.95;;;7.93;;
38312;SDS011;24114;52.260;6.714;2024-01-25T14:29:55;25.63;;;8.55;;
38312;SDS011;24114;52.260;6.714;2024-01-25T14:32:23;25.38;;;9.82;;
38312;SDS011;24114;52.260;6.714;2024-01-25T14:34:51;26.77;;;7.95;;
38312;SDS011;24114;52.260;6.714;2024-01-25T14:37:19;22.50;;;7.60;;
38312;SDS011;24114;52.260;6.714;2024-01-25T14:39:47;23.60;;;7.65;;
38312;SDS011;24114;52.260;6.714;2024-01-25T14:42:35;28.65;;;7.15;;
38312;SDS011;24114;52.260;6.714;2024-01-25T14:45:04;26.05;;;7.35;;
38312;SDS011;24114;52.260;6.714;2024-01-25T14:47:32;26.33;;;8.02;;
38312;SDS011;24114;52.260;6.714;2024-01-25T14:50:00;21.73;;;6.43;;
38312;SDS011;24114;52.260;6.714;2024-01-25T14:52:29;28.05;;;9.20;;
38312;SDS011;24114;52.260;6.714;2024-01-25T14:55:00;24.33;;;6.85;;
38312;SDS011;24114;52.260;6.714;2024-01-25T14:57:28;30.25;;;8.18;;
38312;SDS011;24114;52.260;6.714;2024-01-25T14:59:57;22.48;;;7.00;;
38312;SDS011;24114;52.260;6.714;2024-01-25T15:02:25;23.75;;;7.50;;
38312;SDS011;24114;52.260;6.714;2024-01-25T15:04:53;21.77;;;8.27;;
38312;SDS011;24114;52.260;6.714;2024-01-25T15:07:21;26.42;;;6.95;;
38312;SDS011;24114;52.260;6.714;2024-01-25T15:09:49;18.02;;;5.90;;